Time;durP1;ratioP1;P1;durP2;ratioP2;P2;SDS_P1;SDS_P2;PMS_P1;PMS_P2;Temp;Humidity;BMP_temperature;BMP_pressure;BME280_temperature;BME280_humidity;BME280_pressure;Samples;Min_cycle;Max_cycle;Signal;HPM_P1;HPM_P2
2023/01/01 00:01:56;;;;;;;;;;;12.90;99.90;;;;;;5103192;28;19907;-65
2023/01/01 00:04:21;;;;;;;;;;;12.80;99.90;;;;;;5080163;28;19916;-67
2023/01/01 00:06:47;;;;;;;;;;;12.90;99.90;;;;;;5101950;28;19916;-66
2023/01/01 00:11:56;;;;;;;;;;;12.80;99.90;;;;;;5100918;28;20008;-66
2023/01/01 00:14:22;;;;;;;;;;;12.80;99.90;;;;;;5096719;28;19962;-66
2023/01/01 00:16:48;;;;;;;;;;;12.80;99.90;;;;;;5098488;28;19920;-66
2023/01/01 00:19:13;;;;;;;;;;;12.70;99.90;;;;;;5088513;28;19920;-66
2023/01/01 00:21:39;;;;;;;;;;;12.70;99.90;;;;;;5087733;28;20338;-66
2023/01/01 00:24:05;;;;;;;;;;;12.70;99.90;;;;;;5096531;28;19931;-66
2023/01/01 00:26:31;;;;;;;;;;;12.70;99.90;;;;;;5090485;28;19912;-66
2023/01/01 00:28:57;;;;;;;;;;;12.70;99.90;;;;;;5081508;28;20330;-66
2023/01/01 00:31:22;;;;;;;;;;;12.70;99.90;;;;;;5090780;28;20338;-65
2023/01/01 00:33:52;;;;;;;;;;;12.70;99.90;;;;;;5083115;28;20262;-68
2023/01/01 00:36:17;;;;;;;;;;;12.70;99.90;;;;;;5070421;28;19909;-66
2023/01/01 00:38:44;;;;;;;;;;;12.70;99.90;;;;;;5084099;28;20277;-66
2023/01/01 00:41:09;;;;;;;;;;;12.60;99.90;;;;;;5089057;28;19970;-66
2023/01/01 00:43:35;;;;;;;;;;;12.60;99.90;;;;;;5090866;28;19908;-66
2023/01/01 00:49:03;;;;;;;;;;;12.60;99.90;;;;;;5087924;28;19985;-66
2023/01/01 00:51:29;;;;;;;;;;;12.60;99.90;;;;;;5093772;28;19920;-65
2023/01/01 00:53:54;;;;;;;;;;;12.60;99.90;;;;;;5089309;28;20404;-65
2023/01/01 00:56:20;;;;;;;;;;;12.60;99.90;;;;;;5090312;28;20290;-65
2023/01/01 00:58:45;;;;;;;;;;;12.60;99.90;;;;;;5090492;28;20331;-66
2023/01/01 01:01:11;;;;;;;;;;;12.60;99.90;;;;;;5072526;28;19915;-66
2023/01/01 01:03:37;;;;;;;;;;;12.60;99.90;;;;;;5107850;28;19919;-65
2023/01/01 01:06:03;;;;;;;;;;;12.60;99.90;;;;;;5108364;28;19943;-65
2023/01/01 01:08:30;;;;;;;;;;;12.60;99.90;;;;;;5080100;28;19969;-66
2023/01/01 01:11:03;;;;;;;;;;;12.60;99.90;;;;;;5089943;28;20339;-65
2023/01/01 01:13:29;;;;;;;;;;;12.60;99.90;;;;;;5071844;28;19912;-66
2023/01/01 01:15:54;;;;;;;;;;;12.60;99.90;;;;;;5090009;28;19908;-65
2023/01/01 01:18:20;;;;;;;;;;;12.60;99.90;;;;;;5089885;28;19909;-65
2023/01/01 01:20:49;;;;;;;;;;;12.60;99.90;;;;;;5089735;28;19908;-65
2023/01/01 01:23:15;;;;;;;;;;;12.70;99.90;;;;;;5089810;28;19995;-66
2023/01/01 01:25:40;;;;;;;;;;;12.80;99.90;;;;;;5074231;28;20018;-65
2023/01/01 01:28:06;;;;;;;;;;;12.90;99.90;;;;;;5069769;28;19954;-66
2023/01/01 01:30:32;;;;;;;;;;;12.80;99.90;;;;;;5080196;28;19923;-66
2023/01/01 01:32:57;;;;;;;;;;;12.90;99.90;;;;;;5094898;28;19947;-66
2023/01/01 01:35:23;;;;;;;;;;;12.80;99.90;;;;;;5089766;28;20278;-66
2023/01/01 01:37:48;;;;;;;;;;;12.70;99.90;;;;;;5089555;28;19912;-65
2023/01/01 01:40:16;;;;;;;;;;;12.70;99.90;;;;;;5089926;28;19977;-65
2023/01/01 01:42:44;;;;;;;;;;;12.80;99.90;;;;;;5083074;28;20358;-65
2023/01/01 01:45:10;;;;;;;;;;;12.70;99.90;;;;;;5072985;28;19919;-65
2023/01/01 01:47:38;;;;;;;;;;;12.60;99.90;;;;;;5095149;28;19912;-65
2023/01/01 01:50:04;;;;;;;;;;;12.60;99.90;;;;;;5096313;28;19966;-66
2023/01/01 01:52:30;;;;;;;;;;;12.60;99.90;;;;;;5074985;28;19951;-65
2023/01/01 01:54:56;;;;;;;;;;;12.70;99.90;;;;;;5074673;28;20358;-65
2023/01/01 01:57:22;;;;;;;;;;;12.70;99.90;;;;;;5076894;28;19920;-65
2023/01/01 01:59:49;;;;;;;;;;;12.60;99.90;;;;;;5080714;28;20366;-66
2023/01/01 02:02:20;;;;;;;;;;;12.60;99.90;;;;;;5085919;28;19912;-65
2023/01/01 02:04:46;;;;;;;;;;;12.70;99.90;;;;;;5074482;28;19958;-65
2023/01/01 02:07:13;;;;;;;;;;;12.70;99.90;;;;;;5074643;28;19920;-65
2023/01/01 02:09:38;;;;;;;;;;;12.70;99.90;;;;;;5068639;28;19960;-64
2023/01/01 02:12:04;;;;;;;;;;;12.60;99.90;;;;;;5072904;28;20372;-64
2023/01/01 02:14:29;;;;;;;;;;;12.70;99.90;;;;;;5089646;28;19943;-65
2023/01/01 02:16:56;;;;;;;;;;;12.70;99.90;;;;;;5101715;28;19953;-65
2023/01/01 02:19:51;;;;;;;;;;;12.70;99.90;;;;;;5108979;28;20041;-66
2023/01/01 02:22:17;;;;;;;;;;;12.70;99.90;;;;;;5076582;28;19908;-65
2023/01/01 02:24:58;;;;;;;;;;;12.70;99.90;;;;;;5093325;28;19912;-65
2023/01/01 02:27:30;;;;;;;;;;;12.70;99.90;;;;;;5099708;28;19912;-65
2023/01/01 02:30:04;;;;;;;;;;;12.60;99.90;;;;;;5082008;28;20263;-65
2023/01/01 02:32:49;;;;;;;;;;;12.60;99.90;;;;;;5075773;28;19962;-65
2023/01/01 02:35:33;;;;;;;;;;;12.70;99.90;;;;;;5072223;28;20011;-65
2023/01/01 02:38:03;;;;;;;;;;;12.70;99.90;;;;;;5072567;28;19918;-65
2023/01/01 02:40:29;;;;;;;;;;;12.70;99.90;;;;;;5072806;28;20330;-65
2023/01/01 02:42:56;;;;;;;;;;;12.70;99.90;;;;;;5072764;28;19908;-65
2023/01/01 02:45:21;;;;;;;;;;;12.70;99.90;;;;;;5076815;28;19919;-65
2023/01/01 02:47:47;;;;;;;;;;;12.70;99.90;;;;;;5079468;28;19916;-65
2023/01/01 02:50:19;;;;;;;;;;;12.70;99.90;;;;;;5079287;28;20430;-65
2023/01/01 02:52:51;;;;;;;;;;;12.70;99.90;;;;;;5078773;28;19916;-65
2023/01/01 02:55:31;;;;;;;;;;;12.70;99.90;;;;;;5088027;28;19920;-66
2023/01/01 03:00:59;;;;;;;;;;;12.60;99.90;;;;;;5077405;28;19966;-66
2023/01/01 03:03:32;;;;;;;;;;;12.60;99.90;;;;;;5062494;28;20357;-64
2023/01/01 03:06:22;;;;;;;;;;;12.60;99.90;;;;;;5077243;28;19928;-64
2023/01/01 03:08:50;;;;;;;;;;;12.60;99.90;;;;;;5080219;28;19916;-65
2023/01/01 03:11:17;;;;;;;;;;;12.70;99.90;;;;;;5077910;28;20049;-65
2023/01/01 03:13:52;;;;;;;;;;;12.70;99.90;;;;;;5079985;28;20293;-65
2023/01/01 03:16:18;;;;;;;;;;;12.70;99.90;;;;;;5075839;28;19920;-64
2023/01/01 03:18:49;;;;;;;;;;;12.70;99.90;;;;;;5077135;28;19916;-64
2023/01/01 03:21:16;;;;;;;;;;;12.70;99.90;;;;;;5090693;28;19912;-65
2023/01/01 03:23:46;;;;;;;;;;;12.70;99.90;;;;;;5075442;28;20385;-65
2023/01/01 03:26:12;;;;;;;;;;;12.70;99.90;;;;;;5100876;28;19920;-65
2023/01/01 03:28:42;;;;;;;;;;;12.70;99.90;;;;;;5071382;28;20396;-65
2023/01/01 03:31:09;;;;;;;;;;;12.70;99.90;;;;;;5078521;28;20018;-65
2023/01/01 03:33:39;;;;;;;;;;;12.70;99.90;;;;;;5079135;28;20385;-64
2023/01/01 03:36:10;;;;;;;;;;;12.70;99.90;;;;;;5080237;28;19913;-67
2023/01/01 03:38:41;;;;;;;;;;;12.60;99.90;;;;;;5079089;28;20082;-65
2023/01/01 03:41:21;;;;;;;;;;;12.60;99.90;;;;;;5077122;28;20394;-64
2023/01/01 03:43:52;;;;;;;;;;;12.60;99.90;;;;;;5084433;28;19927;-64
2023/01/01 03:46:21;;;;;;;;;;;12.50;99.90;;;;;;5077960;28;20526;-66
2023/01/01 03:48:55;;;;;;;;;;;12.60;99.90;;;;;;5100074;28;20279;-65
2023/01/01 03:51:39;;;;;;;;;;;12.50;99.90;;;;;;5113801;28;20377;-65
2023/01/01 03:54:27;;;;;;;;;;;12.50;99.90;;;;;;5088575;28;19915;-65
2023/01/01 03:57:12;;;;;;;;;;;12.60;99.90;;;;;;5056517;28;20068;-64
2023/01/01 04:00:03;;;;;;;;;;;12.60;99.90;;;;;;5094489;28;20377;-65
2023/01/01 04:02:33;;;;;;;;;;;12.60;99.90;;;;;;5071789;28;19920;-65
2023/01/01 04:05:00;;;;;;;;;;;12.60;99.90;;;;;;5084253;28;19923;-65
2023/01/01 04:07:27;;;;;;;;;;;12.60;99.90;;;;;;5073243;28;19919;-65
2023/01/01 04:09:54;;;;;;;;;;;12.60;99.90;;;;;;5086746;28;19920;-65
2023/01/01 04:12:20;;;;;;;;;;;12.70;99.90;;;;;;5081023;28;19919;-65
2023/01/01 04:14:46;;;;;;;;;;;12.60;99.90;;;;;;5081728;28;19913;-65
2023/01/01 04:17:12;;;;;;;;;;;12.60;99.90;;;;;;5092522;28;19916;-66
2023/01/01 04:19:38;;;;;;;;;;;12.60;99.90;;;;;;5100239;28;19916;-65
2023/01/01 04:22:03;;;;;;;;;;;12.70;99.90;;;;;;5103420;28;20338;-65
2023/01/01 04:24:29;;;;;;;;;;;12.70;99.90;;;;;;5076653;28;19920;-64
2023/01/01 04:26:54;;;;;;;;;;;12.60;99.90;;;;;;5075505;28;19959;-64
2023/01/01 04:29:20;;;;;;;;;;;12.60;99.90;;;;;;5075301;28;19998;-65
2023/01/01 04:31:46;;;;;;;;;;;12.60;99.90;;;;;;5083850;28;20007;-64
2023/01/01 04:34:12;;;;;;;;;;;12.60;99.90;;;;;;5092045;28;19912;-66
2023/01/01 04:36:38;;;;;;;;;;;12.60;99.90;;;;;;5104891;28;20011;-69
2023/01/01 04:39:03;;;;;;;;;;;12.60;99.90;;;;;;5076321;28;20277;-64
2023/01/01 04:41:29;;;;;;;;;;;12.60;99.90;;;;;;5087074;28;19938;-64
2023/01/01 04:43:55;;;;;;;;;;;12.60;99.90;;;;;;5075754;28;19912;-64
2023/01/01 04:46:21;;;;;;;;;;;12.60;99.90;;;;;;5074021;28;20434;-64
2023/01/01 04:48:47;;;;;;;;;;;12.60;99.90;;;;;;5076227;28;19938;-65
2023/01/01 04:51:14;;;;;;;;;;;12.70;99.90;;;;;;5074855;28;19947;-65
2023/01/01 04:53:39;;;;;;;;;;;12.70;99.90;;;;;;5074702;28;19951;-65
2023/01/01 04:56:05;;;;;;;;;;;12.70;99.90;;;;;;5075091;28;20375;-65
2023/01/01 04:58:31;;;;;;;;;;;12.60;99.90;;;;;;5078864;28;20794;-65
2023/01/01 05:00:57;;;;;;;;;;;12.60;99.90;;;;;;5076180;28;20385;-65
2023/01/01 05:03:23;;;;;;;;;;;12.60;99.90;;;;;;5077028;28;19920;-65
2023/01/01 05:06:09;;;;;;;;;;;12.60;99.90;;;;;;5076724;28;19927;-66
2023/01/01 05:08:36;;;;;;;;;;;12.60;99.90;;;;;;5075202;28;19921;-66
2023/01/01 05:11:03;;;;;;;;;;;12.50;99.90;;;;;;5102907;28;19927;-65
2023/01/01 05:13:29;;;;;;;;;;;12.50;99.90;;;;;;5084964;28;19920;-65
2023/01/01 05:15:54;;;;;;;;;;;12.50;99.90;;;;;;5080900;28;19958;-66
2023/01/01 05:18:20;;;;;;;;;;;12.50;99.90;;;;;;5106198;28;19914;-65
2023/01/01 05:20:46;;;;;;;;;;;12.60;99.90;;;;;;5074316;28;20009;-64
2023/01/01 05:23:11;;;;;;;;;;;12.60;99.90;;;;;;5085085;28;19998;-65
2023/01/01 05:25:37;;;;;;;;;;;12.60;99.90;;;;;;5090679;28;19943;-64
2023/01/01 05:28:02;;;;;;;;;;;12.60;99.90;;;;;;5090692;28;19908;-65
2023/01/01 05:30:28;;;;;;;;;;;12.50;99.90;;;;;;5089411;28;20289;-65
2023/01/01 05:32:56;;;;;;;;;;;12.60;99.90;;;;;;5092754;28;19918;-65
2023/01/01 05:35:22;;;;;;;;;;;12.60;99.90;;;;;;5076191;28;19912;-64
2023/01/01 05:37:48;;;;;;;;;;;12.60;99.90;;;;;;5060661;28;20290;-64
2023/01/01 05:40:13;;;;;;;;;;;12.60;99.90;;;;;;5097977;28;19980;-65
2023/01/01 05:42:39;;;;;;;;;;;12.50;99.90;;;;;;5110007;28;20503;-64
2023/01/01 05:45:05;;;;;;;;;;;12.60;99.90;;;;;;5077109;28;19947;-63
2023/01/01 05:47:30;;;;;;;;;;;12.50;99.90;;;;;;5077035;28;20047;-64
2023/01/01 05:49:56;;;;;;;;;;;12.50;99.90;;;;;;5075278;28;19912;-64
2023/01/01 05:52:21;;;;;;;;;;;12.50;99.90;;;;;;5074826;28;19912;-64
2023/01/01 05:54:47;;;;;;;;;;;12.50;99.90;;;;;;5074903;28;19916;-64
2023/01/01 05:57:12;;;;;;;;;;;12.50;99.90;;;;;;5083934;28;19919;-64
2023/01/01 05:59:38;;;;;;;;;;;12.50;99.90;;;;;;5087588;28;19932;-64
2023/01/01 06:02:03;;;;;;;;;;;12.50;99.90;;;;;;5088774;28;19912;-64
2023/01/01 06:04:29;;;;;;;;;;;12.60;99.90;;;;;;5074333;28;19923;-64
2023/01/01 06:06:54;;;;;;;;;;;12.50;99.90;;;;;;5080276;28;19919;-64
2023/01/01 06:09:20;;;;;;;;;;;12.50;99.90;;;;;;5089278;28;20282;-64
2023/01/01 06:11:45;;;;;;;;;;;12.60;99.90;;;;;;5092606;28;20464;-64
2023/01/01 06:14:11;;;;;;;;;;;12.60;99.90;;;;;;5071816;28;20319;-64
2023/01/01 06:16:36;;;;;;;;;;;12.60;99.90;;;;;;5071568;28;19919;-64
2023/01/01 06:19:02;;;;;;;;;;;12.50;99.90;;;;;;5074500;28;19912;-64
2023/01/01 06:21:28;;;;;;;;;;;12.50;99.90;;;;;;5082148;28;19999;-64
2023/01/01 06:23:54;;;;;;;;;;;12.50;99.90;;;;;;5094671;28;19911;-64
2023/01/01 06:26:22;;;;;;;;;;;12.50;99.90;;;;;;5089168;28;20014;-64
2023/01/01 06:28:47;;;;;;;;;;;12.50;99.90;;;;;;5073195;28;19931;-64
2023/01/01 06:31:14;;;;;;;;;;;12.50;99.90;;;;;;5074375;28;20382;-64
2023/01/01 06:33:40;;;;;;;;;;;12.50;99.90;;;;;;5054322;28;19927;-64
2023/01/01 06:36:07;;;;;;;;;;;12.50;99.90;;;;;;5074110;28;19920;-65
2023/01/01 06:38:33;;;;;;;;;;;12.50;99.90;;;;;;5073293;28;20011;-65
2023/01/01 06:41:03;;;;;;;;;;;12.40;99.90;;;;;;5062537;28;19916;-65
2023/01/01 06:43:29;;;;;;;;;;;12.40;99.90;;;;;;5086380;28;19970;-63
2023/01/01 06:45:59;;;;;;;;;;;12.40;99.90;;;;;;5097088;28;19942;-65
2023/01/01 06:48:24;;;;;;;;;;;12.40;99.90;;;;;;5076222;28;19912;-65
2023/01/01 06:50:50;;;;;;;;;;;12.40;99.90;;;;;;5073438;28;19924;-65
2023/01/01 06:53:15;;;;;;;;;;;12.40;99.90;;;;;;5076156;28;19912;-65
2023/01/01 06:55:47;;;;;;;;;;;12.50;99.90;;;;;;5072991;28;19920;-64
2023/01/01 06:58:13;;;;;;;;;;;12.50;99.90;;;;;;5074696;28;19912;-64
2023/01/01 07:00:38;;;;;;;;;;;12.50;99.90;;;;;;5071730;28;19924;-64
2023/01/01 07:03:04;;;;;;;;;;;12.40;99.90;;;;;;5072376;28;19978;-65
2023/01/01 07:05:29;;;;;;;;;;;12.50;99.90;;;;;;5085995;28;19973;-65
2023/01/01 07:07:55;;;;;;;;;;;12.60;99.90;;;;;;5083084;28;19926;-64
2023/01/01 07:10:20;;;;;;;;;;;12.60;99.90;;;;;;5078539;28;19916;-65
2023/01/01 07:12:46;;;;;;;;;;;12.60;99.90;;;;;;5095471;28;19919;-64
2023/01/01 07:15:12;;;;;;;;;;;12.60;99.90;;;;;;5076838;28;19927;-64
2023/01/01 07:17:37;;;;;;;;;;;12.70;99.90;;;;;;5096059;28;19965;-65
2023/01/01 07:20:03;;;;;;;;;;;12.70;99.90;;;;;;5085680;28;19912;-64
2023/01/01 07:22:28;;;;;;;;;;;12.70;99.90;;;;;;5078370;28;19916;-63
2023/01/01 07:24:54;;;;;;;;;;;12.70;99.90;;;;;;5076811;28;20363;-65
2023/01/01 07:27:19;;;;;;;;;;;12.80;99.90;;;;;;5076977;28;20239;-65
2023/01/01 07:29:45;;;;;;;;;;;12.70;99.90;;;;;;5081180;28;20318;-65
2023/01/01 07:32:12;;;;;;;;;;;12.80;99.90;;;;;;5089822;28;19919;-64
2023/01/01 07:34:38;;;;;;;;;;;12.70;99.90;;;;;;5095408;28;19991;-64
2023/01/01 07:37:03;;;;;;;;;;;12.80;99.90;;;;;;5097489;28;19912;-65
2023/01/01 07:39:29;;;;;;;;;;;12.80;99.90;;;;;;5106606;28;19994;-65
2023/01/01 07:41:54;;;;;;;;;;;12.70;99.90;;;;;;5112510;28;19919;-64
2023/01/01 07:44:20;;;;;;;;;;;12.70;99.90;;;;;;5103827;28;20307;-64
2023/01/01 07:46:45;;;;;;;;;;;12.70;99.90;;;;;;5109915;28;19987;-64
2023/01/01 07:49:11;;;;;;;;;;;12.70;99.90;;;;;;5106207;28;19912;-65
2023/01/01 07:51:36;;;;;;;;;;;12.80;99.90;;;;;;5112503;28;20010;-64
2023/01/01 07:54:02;;;;;;;;;;;12.80;99.90;;;;;;5091382;28;20237;-64
2023/01/01 07:56:28;;;;;;;;;;;12.80;99.90;;;;;;5078130;28;19924;-64
2023/01/01 07:58:53;;;;;;;;;;;12.70;99.90;;;;;;5073383;28;19978;-64
2023/01/01 08:01:19;;;;;;;;;;;12.70;99.90;;;;;;5080259;28;19920;-64
2023/01/01 08:03:49;;;;;;;;;;;12.70;99.90;;;;;;5074281;28;19999;-65
2023/01/01 08:06:14;;;;;;;;;;;12.70;99.90;;;;;;5101747;28;19975;-64
2023/01/01 08:08:40;;;;;;;;;;;12.60;99.90;;;;;;5099865;28;19912;-64
2023/01/01 08:11:05;;;;;;;;;;;12.60;99.90;;;;;;5111367;28;19922;-65
2023/01/01 08:13:31;;;;;;;;;;;12.70;99.90;;;;;;5091743;28;19908;-64
2023/01/01 08:15:57;;;;;;;;;;;12.70;99.90;;;;;;5096977;28;20055;-65
2023/01/01 08:18:23;;;;;;;;;;;12.70;99.90;;;;;;5110299;28;19915;-65
2023/01/01 08:20:49;;;;;;;;;;;12.70;99.90;;;;;;5107419;28;19913;-65
2023/01/01 08:23:14;;;;;;;;;;;12.70;99.90;;;;;;5091254;28;19954;-65
2023/01/01 08:25:40;;;;;;;;;;;12.80;99.90;;;;;;5090561;28;19961;-66
2023/01/01 08:28:05;;;;;;;;;;;12.70;99.90;;;;;;5090880;28;19952;-65
2023/01/01 08:30:31;;;;;;;;;;;12.70;99.90;;;;;;5090381;28;19912;-65
2023/01/01 08:32:56;;;;;;;;;;;12.70;99.90;;;;;;5090655;28;19927;-64
2023/01/01 08:35:22;;;;;;;;;;;12.70;99.90;;;;;;5090809;28;20314;-65
2023/01/01 08:37:47;;;;;;;;;;;12.60;99.90;;;;;;5091106;28;19908;-64
2023/01/01 08:40:13;;;;;;;;;;;12.60;99.90;;;;;;5090925;28;20062;-64
2023/01/01 08:42:39;;;;;;;;;;;12.70;99.90;;;;;;5101268;28;19919;-65
2023/01/01 08:45:05;;;;;;;;;;;12.70;99.90;;;;;;5071726;28;19917;-64
2023/01/01 08:47:30;;;;;;;;;;;12.70;99.90;;;;;;5079988;28;20004;-65
2023/01/01 08:49:56;;;;;;;;;;;12.70;99.90;;;;;;5099227;28;20015;-65
2023/01/01 08:52:22;;;;;;;;;;;12.60;99.90;;;;;;5096228;28;19912;-65
2023/01/01 08:54:47;;;;;;;;;;;12.60;99.90;;;;;;5085694;28;19908;-64
2023/01/01 08:57:13;;;;;;;;;;;12.60;99.90;;;;;;5100068;28;19913;-64
2023/01/01 08:59:39;;;;;;;;;;;12.60;99.90;;;;;;5074346;28;19916;-65
2023/01/01 09:02:05;;;;;;;;;;;12.50;99.90;;;;;;5084222;28;19912;-65
2023/01/01 09:04:30;;;;;;;;;;;12.60;99.90;;;;;;5068692;28;20971;-66
2023/01/01 09:06:56;;;;;;;;;;;12.60;99.90;;;;;;5093283;28;19951;-65
2023/01/01 09:09:22;;;;;;;;;;;12.60;99.90;;;;;;5083427;28;19912;-65
2023/01/01 09:11:51;;;;;;;;;;;12.60;99.90;;;;;;5082465;28;19939;-64
2023/01/01 09:14:16;;;;;;;;;;;12.60;99.90;;;;;;5091359;28;19918;-66
2023/01/01 09:16:42;;;;;;;;;;;12.60;99.90;;;;;;5090954;28;20002;-63
2023/01/01 09:19:07;;;;;;;;;;;12.70;99.90;;;;;;5081397;28;19913;-64
2023/01/01 09:21:33;;;;;;;;;;;12.70;99.90;;;;;;5099330;28;19920;-64
2023/01/01 09:23:58;;;;;;;;;;;12.70;99.90;;;;;;5077292;28;19921;-65
2023/01/01 09:26:24;;;;;;;;;;;12.70;99.90;;;;;;5078709;28;19995;-65
2023/01/01 09:28:50;;;;;;;;;;;12.60;99.90;;;;;;5094879;28;19912;-68
2023/01/01 09:31:15;;;;;;;;;;;12.50;99.90;;;;;;5101041;28;19965;-64
2023/01/01 09:33:41;;;;;;;;;;;12.50;99.90;;;;;;5085777;28;19943;-64
2023/01/01 09:36:33;;;;;;;;;;;12.50;99.90;;;;;;5101784;28;19912;-63
2023/01/01 09:38:58;;;;;;;;;;;12.50;99.90;;;;;;5090706;28;19924;-65
2023/01/01 09:41:27;;;;;;;;;;;12.50;99.90;;;;;;5088216;28;19935;-64
2023/01/01 09:43:52;;;;;;;;;;;12.40;99.90;;;;;;5090847;28;19930;-67
2023/01/01 09:46:18;;;;;;;;;;;12.40;99.90;;;;;;5104664;28;20061;-66
2023/01/01 09:48:50;;;;;;;;;;;12.40;99.90;;;;;;5090921;28;20007;-66
2023/01/01 09:51:17;;;;;;;;;;;12.40;99.90;;;;;;5086520;28;20370;-64
2023/01/01 09:53:42;;;;;;;;;;;12.50;99.90;;;;;;5086688;28;19919;-65
2023/01/01 09:56:12;;;;;;;;;;;12.50;99.90;;;;;;5084374;28;19916;-66
2023/01/01 09:58:38;;;;;;;;;;;12.50;99.90;;;;;;5083110;28;20431;-66
2023/01/01 10:01:14;;;;;;;;;;;12.50;99.90;;;;;;5087536;28;19999;-64
2023/01/01 10:03:52;;;;;;;;;;;12.50;99.90;;;;;;5083293;28;19912;-65
2023/01/01 10:06:21;;;;;;;;;;;12.50;99.90;;;;;;5099321;28;19915;-64
2023/01/01 10:08:55;;;;;;;;;;;12.40;99.90;;;;;;5078592;28;20272;-65
2023/01/01 10:11:29;;;;;;;;;;;12.40;99.90;;;;;;5070457;28;20371;-63
2023/01/01 10:13:57;;;;;;;;;;;12.40;99.90;;;;;;5087430;28;19912;-62
2023/01/01 10:16:45;;;;;;;;;;;12.40;99.90;;;;;;5109603;28;20318;-64
2023/01/01 10:19:19;;;;;;;;;;;12.40;99.90;;;;;;5096472;28;19912;-64
2023/01/01 10:21:45;;;;;;;;;;;12.40;99.90;;;;;;5089972;28;20302;-63
2023/01/01 10:24:24;;;;;;;;;;;12.50;99.90;;;;;;5083832;28;19912;-66
2023/01/01 10:26:50;;;;;;;;;;;12.50;99.90;;;;;;5083413;28;20006;-64
2023/01/01 10:29:25;;;;;;;;;;;12.50;99.90;;;;;;5085683;28;19983;-63
2023/01/01 10:31:53;;;;;;;;;;;12.50;99.90;;;;;;5080717;28;19912;-65
2023/01/01 10:34:19;;;;;;;;;;;12.50;99.90;;;;;;5091881;28;19920;-63
2023/01/01 10:36:45;;;;;;;;;;;12.50;99.90;;;;;;5097521;28;19995;-64
2023/01/01 10:39:17;;;;;;;;;;;12.40;99.90;;;;;;5100298;28;19920;-61
2023/01/01 10:41:43;;;;;;;;;;;12.40;99.90;;;;;;5095609;28;19908;-63
2023/01/01 10:44:09;;;;;;;;;;;12.40;99.90;;;;;;5098926;28;20385;-64
2023/01/01 10:46:36;;;;;;;;;;;12.40;99.90;;;;;;5083217;28;20424;-65
2023/01/01 10:49:03;;;;;;;;;;;12.40;99.90;;;;;;5089575;28;20046;-63
2023/01/01 10:51:29;;;;;;;;;;;12.40;99.90;;;;;;5091745;28;20432;-64
2023/01/01 10:53:54;;;;;;;;;;;12.50;99.90;;;;;;5103844;28;20002;-66
2023/01/01 10:56:23;;;;;;;;;;;12.50;99.90;;;;;;5104769;28;19912;-64
2023/01/01 10:58:50;;;;;;;;;;;12.60;99.90;;;;;;5091199;28;19930;-64
2023/01/01 11:01:16;;;;;;;;;;;12.60;99.90;;;;;;5092380;28;19982;-64
2023/01/01 11:04:11;;;;;;;;;;;12.70;99.90;;;;;;5101635;28;19908;-64
2023/01/01 11:06:38;;;;;;;;;;;12.70;99.90;;;;;;5081518;28;20389;-64
2023/01/01 11:09:25;;;;;;;;;;;12.70;99.90;;;;;;5091897;28;19911;-65
2023/01/01 11:11:58;;;;;;;;;;;12.70;99.90;;;;;;5102773;28;19942;-63
2023/01/01 11:14:42;;;;;;;;;;;12.80;99.90;;;;;;5087292;28;19919;-65
2023/01/01 11:17:08;;;;;;;;;;;12.80;99.90;;;;;;5094380;28;19955;-63
2023/01/01 11:19:35;;;;;;;;;;;12.90;99.90;;;;;;5086164;28;19908;-65
2023/01/01 11:22:01;;;;;;;;;;;13.00;99.90;;;;;;5089255;28;19912;-65
2023/01/01 11:24:34;;;;;;;;;;;13.00;99.90;;;;;;5091232;28;19954;-65
2023/01/01 11:27:20;;;;;;;;;;;13.00;99.90;;;;;;5097095;28;19968;-64
2023/01/01 11:29:46;;;;;;;;;;;13.00;99.90;;;;;;5094595;28;19998;-64
2023/01/01 11:32:17;;;;;;;;;;;13.00;99.90;;;;;;5101361;28;19915;-60
2023/01/01 11:34:43;;;;;;;;;;;13.10;99.90;;;;;;5090324;28;19932;-66
2023/01/01 11:37:18;;;;;;;;;;;13.10;99.90;;;;;;5098562;28;20305;-66
2023/01/01 11:39:45;;;;;;;;;;;13.00;99.90;;;;;;5085427;28;19916;-64
2023/01/01 11:42:18;;;;;;;;;;;13.00;99.90;;;;;;5079395;28;20318;-67
2023/01/01 11:44:45;;;;;;;;;;;13.00;99.90;;;;;;5078892;28;19958;-67
2023/01/01 11:47:20;;;;;;;;;;;13.00;99.90;;;;;;5078320;28;20402;-65
2023/01/01 11:49:45;;;;;;;;;;;13.00;99.90;;;;;;5072511;28;20574;-68
2023/01/01 11:52:30;;;;;;;;;;;13.00;99.90;;;;;;5077512;28;20030;-67
2023/01/01 11:55:01;;;;;;;;;;;13.10;99.90;;;;;;5098249;28;19912;-67
2023/01/01 11:57:27;;;;;;;;;;;13.10;99.90;;;;;;5084047;28;19928;-65
2023/01/01 11:59:55;;;;;;;;;;;13.10;99.90;;;;;;5096282;28;20258;-66
2023/01/01 12:02:42;;;;;;;;;;;13.10;99.90;;;;;;5108371;28;20015;-66
2023/01/01 12:05:22;;;;;;;;;;;13.10;99.90;;;;;;5079536;28;19912;-66
2023/01/01 12:07:48;;;;;;;;;;;13.10;99.90;;;;;;5079984;28;20433;-65
2023/01/01 12:10:14;;;;;;;;;;;13.20;99.90;;;;;;5074179;28;21556;-67
2023/01/01 12:12:49;;;;;;;;;;;13.20;99.90;;;;;;5073890;28;19920;-65
2023/01/01 12:15:25;;;;;;;;;;;13.30;99.90;;;;;;5097402;28;19916;-66
2023/01/01 12:18:00;;;;;;;;;;;13.20;99.90;;;;;;5105730;28;19916;-65
2023/01/01 12:20:37;;;;;;;;;;;13.30;99.90;;;;;;5092816;28;20305;-67
2023/01/01 12:23:03;;;;;;;;;;;13.20;99.90;;;;;;5096154;28;19957;-65
2023/01/01 12:25:32;;;;;;;;;;;13.30;99.90;;;;;;5083654;28;19970;-65
2023/01/01 12:28:14;;;;;;;;;;;13.40;99.90;;;;;;5082149;28;20278;-67
2023/01/01 12:30:42;;;;;;;;;;;13.40;99.90;;;;;;5071009;28;19923;-66
2023/01/01 12:33:11;;;;;;;;;;;13.50;99.90;;;;;;5071176;28;19908;-67
2023/01/01 12:35:54;;;;;;;;;;;13.50;99.90;;;;;;5070904;28;19963;-66
2023/01/01 12:38:20;;;;;;;;;;;13.50;99.90;;;;;;5052873;28;19970;-62
2023/01/01 12:40:54;;;;;;;;;;;13.50;99.90;;;;;;5077725;28;19951;-67
2023/01/01 12:43:31;;;;;;;;;;;13.50;99.90;;;;;;5089350;28;20027;-61
2023/01/01 12:46:08;;;;;;;;;;;13.60;99.90;;;;;;5079951;28;19916;-66
2023/01/01 12:48:43;;;;;;;;;;;13.60;99.90;;;;;;5079418;28;19913;-61
2023/01/01 12:51:09;;;;;;;;;;;13.70;99.90;;;;;;5079220;28;20018;-64
2023/01/01 12:53:51;;;;;;;;;;;13.70;99.90;;;;;;5084116;28;20317;-67
2023/01/01 12:56:19;;;;;;;;;;;13.80;99.90;;;;;;5092492;28;19911;-64
2023/01/01 12:58:55;;;;;;;;;;;13.70;99.90;;;;;;5096516;28;19928;-66
2023/01/01 13:01:23;;;;;;;;;;;13.70;99.90;;;;;;5089841;28;19912;-65
2023/01/01 13:03:54;;;;;;;;;;;13.70;99.90;;;;;;5077980;28;19931;-65
2023/01/01 13:06:43;;;;;;;;;;;13.70;99.90;;;;;;5076170;28;20512;-68
2023/01/01 13:09:17;;;;;;;;;;;13.80;99.90;;;;;;5067271;28;20043;-61
2023/01/01 13:11:45;;;;;;;;;;;13.80;99.90;;;;;;5084306;28;19924;-62
2023/01/01 13:14:10;;;;;;;;;;;13.80;99.90;;;;;;5101482;28;20002;-61
2023/01/01 13:16:37;;;;;;;;;;;13.80;99.90;;;;;;5092027;28;19995;-61
2023/01/01 13:19:02;;;;;;;;;;;13.80;99.90;;;;;;5080884;28;19909;-63
2023/01/01 13:21:28;;;;;;;;;;;13.70;99.90;;;;;;5090948;28;19919;-63
2023/01/01 13:23:59;;;;;;;;;;;13.70;99.90;;;;;;5103627;28;19999;-66
2023/01/01 13:26:25;;;;;;;;;;;13.60;99.90;;;;;;5089969;28;19919;-65
2023/01/01 13:28:56;;;;;;;;;;;13.60;99.90;;;;;;5089415;28;19912;-67
2023/01/01 13:31:37;;;;;;;;;;;13.60;99.90;;;;;;5084942;28;19917;-65
2023/01/01 13:34:22;;;;;;;;;;;13.60;99.90;;;;;;5074416;28;20470;-65
2023/01/01 13:36:47;;;;;;;;;;;13.60;99.90;;;;;;5069658;28;19912;-66
2023/01/01 13:39:33;;;;;;;;;;;13.70;99.90;;;;;;5083784;28;20003;-67
2023/01/01 13:41:58;;;;;;;;;;;13.70;99.90;;;;;;5095855;28;19924;-65
2023/01/01 13:44:24;;;;;;;;;;;13.70;99.90;;;;;;5110264;28;20029;-67
2023/01/01 13:47:16;;;;;;;;;;;13.70;99.90;;;;;;5083569;28;19912;-65
2023/01/01 13:49:44;;;;;;;;;;;13.70;99.90;;;;;;5085148;28;19908;-67
2023/01/01 13:52:25;;;;;;;;;;;13.70;99.90;;;;;;5102517;28;19939;-67
2023/01/01 13:54:59;;;;;;;;;;;13.80;99.90;;;;;;5109832;28;20262;-67
2023/01/01 13:57:39;;;;;;;;;;;14.00;99.90;;;;;;5098428;28;20325;-66
2023/01/01 14:00:15;;;;;;;;;;;14.00;99.90;;;;;;5084836;28;20418;-66
2023/01/01 14:02:46;;;;;;;;;;;13.90;99.90;;;;;;5107178;28;19912;-66
2023/01/01 14:05:23;;;;;;;;;;;13.80;99.90;;;;;;5109806;28;19919;-70
2023/01/01 14:07:49;;;;;;;;;;;13.80;99.90;;;;;;5091921;28;19931;-67
2023/01/01 14:10:26;;;;;;;;;;;13.80;99.90;;;;;;5097422;28;19912;-67
2023/01/01 14:12:52;;;;;;;;;;;13.80;99.90;;;;;;5097724;28;19927;-66
2023/01/01 14:15:29;;;;;;;;;;;13.70;99.90;;;;;;5092257;28;19916;-64
2023/01/01 14:17:56;;;;;;;;;;;13.80;99.90;;;;;;5088228;28;19927;-63
2023/01/01 14:20:23;;;;;;;;;;;13.70;99.90;;;;;;5094538;28;19912;-63
2023/01/01 14:22:50;;;;;;;;;;;13.60;99.90;;;;;;5107555;28;19915;-69
2023/01/01 14:25:18;;;;;;;;;;;13.50;99.90;;;;;;5091625;28;20400;-68
2023/01/01 14:27:44;;;;;;;;;;;13.40;99.90;;;;;;5102409;28;20281;-68
2023/01/01 14:30:16;;;;;;;;;;;13.30;99.90;;;;;;5114068;28;19923;-65
2023/01/01 14:32:42;;;;;;;;;;;13.30;99.90;;;;;;5095555;28;20023;-68
2023/01/01 14:35:13;;;;;;;;;;;13.20;99.90;;;;;;5093360;28;19958;-69